D/T METAR WX W/SPE G/SPE TEMP DEWP FEEL
25/05/22 00:50 EGBB 242350Z 25005KT 200V290 CAVOK 11/06 Q1011 5.8mph 11°C 6°C 10.6°C
25/05/22 00:20 EGBB 242320Z 26004KT 220V290 CAVOK 10/05 Q1011 4.6mph 10°C 5°C 9.3°C
24/05/22 23:50 EGBB 242250Z 24004KT 110V270 CAVOK 10/05 Q1010 4.6mph 10°C 5°C 9.3°C
24/05/22 23:20 EGBB 242220Z 27005KT CAVOK 10/06 Q1010 5.8mph 10°C 6°C 9.6°C
24/05/22 22:50 EGBB 242150Z 25004KT CAVOK 11/05 Q1010 4.6mph 11°C 5°C 10.3°C
24/05/22 21:50 EGBB 242050Z 26005KT 220V280 9999 FEW046 13/05 Q1010 5.8mph 13°C 5°C 12.3°C
24/05/22 21:20 EGBB 242020Z 27007KT 9999 SCT046 13/05 Q1009 8.1mph 13°C 5°C 12.3°C
24/05/22 20:50 EGBB 241950Z 26006KT 9999 SCT047 14/05 Q1009 6.9mph 14°C 5°C 13.3°C
24/05/22 19:50 EGBB 241850Z 29007KT 250V320 CAVOK 14/05 Q1008 8.1mph 14°C 5°C 13.3°C
24/05/22 19:20 EGBB 241820Z 29008KT 260V330 CAVOK 15/03 Q1008 9.2mph 15°C 3°C 13.7°C
24/05/22 18:50 EGBB 241750Z 30009KT 9999 SCT049 15/05 Q1008 10.4mph 15°C 5°C 14.3°C
24/05/22 18:20 EGBB 241720Z 30010KT 9999 SCT049 16/06 Q1008 11.5mph 16°C 6°C 15.6°C
24/05/22 17:50 EGBB 241650Z 30010KT 9999 FEW048 15/05 Q1008 11.5mph 15°C 5°C 14.3°C
24/05/22 16:50 EGBB 241550Z 28008KT 230V320 9999 BKN048 15/06 Q1007 9.2mph 15°C 6°C 14.6°C
24/05/22 16:20 EGBB 241520Z 30011KT 9999 SCT043 15/05 Q1007 12.7mph 15°C 5°C 14.3°C
24/05/22 15:50 EGBB 241450Z 32015KT 9999 VCSH FEW041CB 16/07 Q1007 VCSH 17.3mph 16°C 7°C 16.0°C
24/05/22 15:20 EGBB 241420Z 30011KT 9999 SCT037CB 15/08 Q1007 12.7mph 15°C 8°C 15.4°C
24/05/22 14:50 EGBB 241350Z 32009KT 9999 FEW042TCU 15/08 Q1007 10.4mph 15°C 8°C 15.4°C
24/05/22 14:20 EGBB 241320Z 32010KT 260V340 9999 SCT044CB 15/08 Q1006 11.5mph 15°C 8°C 15.4°C
24/05/22 13:50 EGBB 241250Z 29009KT 9999 SCT041CB 15/08 Q1006 10.4mph 15°C 8°C 15.4°C
24/05/22 13:20 EGBB 241220Z 31006KT 270V350 9999 FEW031CB SCT043 15/09 Q1006 6.9mph 15°C 9°C 15.8°C
24/05/22 12:50 EGBB 241150Z 30005KT 9999 VCSH SCT033CB 12/10 Q1006 RESHGS VCSH 5.8mph 12°C 10°C 13.3°C
24/05/22 12:20 EGBB 241120Z 27008KT 240V320 9999 VCSH SCT037CB 15/07 Q1005 VCSH 9.2mph 15°C 7°C 15.0°C
24/05/22 11:20 EGBB 241020Z 29008KT 9999 SCT038 14/07 Q1005 9.2mph 14°C 7°C 14.0°C
24/05/22 10:50 EGBB 240950Z 30008KT 260V330 9999 SCT035 14/07 Q1005 9.2mph 14°C 7°C 14.0°C
24/05/22 10:20 EGBB 240920Z 29010KT 260V320 9999 SCT030 14/07 Q1005 11.5mph 14°C 7°C 14.0°C
24/05/22 09:50 EGBB 240850Z 29009KT 260V320 9999 SCT028 12/07 Q1005 10.4mph 12°C 7°C 12.0°C
24/05/22 08:50 EGBB 240750Z 30008KT 9999 BKN018TCU 12/08 Q1004 9.2mph 12°C 8°C 12.4°C
24/05/22 07:50 EGBB 240650Z 30007KT 9999 SCT019TCU 12/09 Q1003 8.1mph 12°C 9°C 12.8°C
24/05/22 06:50 EGBB 240550Z 28006KT 250V320 9999 SCT014TCU 10/09 Q1003 6.9mph 10°C 9°C 10.8°C
24/05/22 06:20 EGBB 240520Z 27006KT 250V310 9999 SCT013 10/09 Q1002 6.9mph 10°C 9°C 10.8°C
24/05/22 05:50 EGBB 240450Z 27005KT 9999 BKN013 09/09 Q1002 5.8mph 9°C 9°C 9.8°C
24/05/22 04:50 EGBB 240350Z 28005KT 9999 -RA SCT014 BKN031 10/09 Q1002 -RA 5.8mph 10°C 9°C 10.8°C
24/05/22 04:20 EGBB 240320Z 27006KT 9999 -RA SCT025 BKN046 10/09 Q1001 -RA 6.9mph 10°C 9°C 10.8°C
24/05/22 03:50 EGBB 240250Z 27006KT 9999 SCT019 BKN028 BKN048 10/09 Q1001 6.9mph 10°C 9°C 10.8°C
24/05/22 03:20 EGBB 240220Z 27006KT 9999 -RA FEW017 SCT031 10/10 Q1001 -RA 6.9mph 10°C 10°C 11.3°C
24/05/22 02:50 EGBB 240150Z 26005KT CAVOK 10/10 Q1001 5.8mph 10°C 10°C 11.3°C
24/05/22 02:20 EGBB 240120Z 26005KT 9999 -RA NSC 10/10 Q1001 -RA 5.8mph 10°C 10°C 11.3°C
24/05/22 01:50 EGBB 240050Z 25005KT CAVOK 10/10 Q1001 5.8mph 10°C 10°C 11.3°C
24/05/22 01:20 EGBB 240020Z 27003KT 240V310 CAVOK 10/10 Q1001 3.5mph 10°C 10°C 11.3°C
24/05/22 00:20 EGBB 232320Z 26005KT 9999 -RA BKN043 10/10 Q1001 -RA 5.8mph 10°C 10°C 11.3°C
23/05/22 23:50 EGBB 232250Z 27006KT 9999 FEW017 10/10 Q1001 6.9mph 10°C 10°C 11.3°C
23/05/22 23:20 EGBB 232220Z 25007KT 9999 FEW017 SCT042 10/10 Q1001 8.1mph 10°C 10°C 11.3°C
23/05/22 22:50 EGBB 232150Z 25006KT 9999 BKN045 10/10 Q1001 6.9mph 10°C 10°C 11.3°C
23/05/22 22:20 EGBB 232120Z 26006KT 220V290 9000 -RA BKN028 OVC048 10/10 Q1001 -RA 6.9mph 10°C 10°C 11.3°C
23/05/22 21:50 EGBB 232050Z 25006KT 9000 -RA BKN032 11/11 Q1001 -RA 6.9mph 11°C 11°C 12.8°C
23/05/22 21:20 EGBB 232020Z 27004KT 9000 -RA FEW017 OVC045 11/11 Q1000 -RA 4.6mph 11°C 11°C 12.8°C
23/05/22 20:50 EGBB 231950Z 28005KT 9000 -RA BKN047 11/11 Q1000 -RA 5.8mph 11°C 11°C 12.8°C
23/05/22 20:20 EGBB 231920Z 29004KT 9999 -RA SCT049TCU 11/11 Q1000 -RA 4.6mph 11°C 11°C 12.8°C
23/05/22 19:50 EGBB 231850Z 31007KT 9999 -RA FEW018 SCT049TCU 11/10 Q1000 -RA 8.1mph 11°C 10°C 12.3°C
23/05/22 18:50 EGBB 231750Z 33007KT 9999 -RA OVC049CB 11/11 Q1001 -RA 8.1mph 11°C 11°C 12.8°C
23/05/22 18:20 EGBB 231720Z 33008KT 9999 -RA BKN046 11/11 Q1001 -RA 9.2mph 11°C 11°C 12.8°C
23/05/22 17:50 EGBB 231650Z 30009KT 9999 -RA FEW017 12/11 Q1001 -RA 10.4mph 12°C 11°C 13.8°C
23/05/22 17:20 EGBB 231620Z 29008KT 9999 FEW047 13/09 Q1000 9.2mph 13°C 9°C 13.8°C
23/05/22 16:50 EGBB 231550Z 29008KT 9999 -RA FEW035 SCT043 13/09 Q1000 RERA -RA 9.2mph 13°C 9°C 13.8°C
23/05/22 16:20 EGBB 231520Z 28008KT 250V320 9999 FEW031 15/09 Q1000 9.2mph 15°C 9°C 15.8°C
23/05/22 15:20 EGBB 231420Z 27007KT 240V310 9999 SCT028 15/09 Q1001 8.1mph 15°C 9°C 15.8°C
23/05/22 14:50 EGBB 231350Z 28008KT CAVOK 15/09 Q1001 9.2mph 15°C 9°C 15.8°C
23/05/22 14:20 EGBB 231320Z 27008KT 230V310 9999 SCT036 15/08 Q1001 9.2mph 15°C 8°C 15.4°C
23/05/22 13:50 EGBB 231250Z 25008KT 220V280 9999 FEW028 16/09 Q1001 9.2mph 16°C 9°C 16.8°C
23/05/22 13:20 EGBB 231220Z 26009KT 220V290 9999 SCT040 15/07 Q1001 10.4mph 15°C 7°C 15.0°C
23/05/22 12:20 EGBB 231120Z 25006KT 220V280 9999 SCT037 16/08 Q1001 6.9mph 16°C 8°C 16.4°C
23/05/22 11:50 EGBB 231050Z 27007KT 220V310 9999 SCT037 16/08 Q1002 8.1mph 16°C 8°C 16.4°C
23/05/22 11:20 EGBB 231020Z 28005KT 200V330 9999 SCT037 15/07 Q1002 5.8mph 15°C 7°C 15.0°C
23/05/22 10:20 EGBB 230920Z 21004KT 160V260 9999 SCT029 15/08 Q1002 4.6mph 15°C 8°C 15.4°C
23/05/22 09:50 EGBB 230850Z 27005KT 230V310 9999 SCT025 14/09 Q1003 5.8mph 14°C 9°C 14.8°C
23/05/22 09:20 EGBB 230820Z 25006KT 210V280 CAVOK 14/09 Q1003 6.9mph 14°C 9°C 14.8°C
23/05/22 08:50 EGBB 230750Z 26006KT 200V300 CAVOK 13/09 Q1003 6.9mph 13°C 9°C 13.8°C
23/05/22 08:20 EGBB 230720Z 27007KT CAVOK 13/09 Q1003 8.1mph 13°C 9°C 13.8°C
23/05/22 07:50 EGBB 230650Z 27006KT CAVOK 13/09 Q1003 6.9mph 13°C 9°C 13.8°C
23/05/22 07:20 EGBB 230620Z 27007KT 240V310 CAVOK 13/09 Q1004 8.1mph 13°C 9°C 13.8°C
23/05/22 06:50 EGBB 230550Z 27006KT 230V300 CAVOK 13/09 Q1004 6.9mph 13°C 9°C 13.8°C
23/05/22 06:20 EGBB 230520Z 28006KT CAVOK 13/09 Q1004 6.9mph 13°C 9°C 13.8°C
23/05/22 05:50 EGBB 230450Z 28006KT 9999 SCT021 13/09 Q1004 6.9mph 13°C 9°C 13.8°C
23/05/22 05:20 EGBB 230420Z 30007KT 9999 FEW017 SCT027 13/10 Q1004 8.1mph 13°C 10°C 14.3°C
23/05/22 04:50 EGBB 230350Z 27006KT 9999 SCT017 BKN023 14/11 Q1004 6.9mph 14°C 11°C 15.8°C
23/05/22 04:20 EGBB 230320Z 28006KT 240V320 9999 BKN020 OVC035 14/11 Q1004 6.9mph 14°C 11°C 15.8°C
23/05/22 03:20 EGBB 230220Z 27004KT 230V300 9999 SCT033 OVC039 14/11 Q1005 4.6mph 14°C 11°C 15.8°C
23/05/22 02:50 EGBB 230150Z 27006KT 230V300 9999 SCT039 14/11 Q1005 6.9mph 14°C 11°C 15.8°C
23/05/22 01:50 EGBB 230050Z 24003KT 9999 BKN034 OVC048 15/10 Q1006 3.5mph 15°C 10°C 16.3°C
23/05/22 01:20 EGBB 230020Z 26006KT 9999 FEW038 BKN049 15/10 Q1006 6.9mph 15°C 10°C 16.3°C
23/05/22 00:50 EGBB 222350Z 24004KT 210V290 CAVOK 15/10 Q1006 4.6mph 15°C 10°C 16.3°C
23/05/22 00:20 EGBB 222320Z 27003KT 230V300 CAVOK 15/10 Q1007 3.5mph 15°C 10°C 16.3°C
22/05/22 23:50 EGBB 222250Z 24003KT 210V280 CAVOK 15/10 Q1007 3.5mph 15°C 10°C 16.3°C
22/05/22 22:50 EGBB 222150Z 25003KT CAVOK 16/10 Q1007 3.5mph 16°C 10°C 17.3°C
22/05/22 22:20 EGBB 222120Z 27005KT CAVOK 16/10 Q1007 5.8mph 16°C 10°C 17.3°C
22/05/22 21:50 EGBB 222050Z 27004KT 230V300 CAVOK 16/11 Q1007 4.6mph 16°C 11°C 17.8°C
22/05/22 21:20 EGBB 222020Z 28006KT CAVOK 17/12 Q1007 6.9mph 17°C 12°C 19.3°C
22/05/22 20:50 EGBB 221950Z 25005KT 210V280 CAVOK 18/12 Q1008 5.8mph 18°C 12°C 20.3°C
22/05/22 20:20 EGBB 221920Z 24005KT 210V280 CAVOK 18/11 Q1008 5.8mph 18°C 11°C 19.8°C
22/05/22 19:50 EGBB 221850Z 23004KT 190V260 CAVOK 18/11 Q1008 4.6mph 18°C 11°C 19.8°C
22/05/22 19:20 EGBB 221820Z 24005KT 210V280 CAVOK 19/11 Q1008 5.8mph 19°C 11°C 20.8°C
22/05/22 18:50 EGBB 221750Z 24005KT 200V270 CAVOK 19/11 Q1008 5.8mph 19°C 11°C 20.8°C
22/05/22 18:20 EGBB 221720Z 24006KT 220V280 CAVOK 19/11 Q1009 6.9mph 19°C 11°C 20.8°C
22/05/22 17:50 EGBB 221650Z 24006KT 200V270 9999 BKN047 19/11 Q1009 6.9mph 19°C 11°C 20.8°C
22/05/22 17:20 EGBB 221620Z 24005KT 170V290 CAVOK 19/11 Q1009 5.8mph 19°C 11°C 20.8°C